Time;durP1;ratioP1;P1;durP2;ratioP2;P2;SDS_P1;SDS_P2;PMS_P1;PMS_P2;Temp;Humidity;BMP_temperature;BMP_pressure;BME280_temperature;BME280_humidity;BME280_pressure;Samples;Min_cycle;Max_cycle;Signal;HPM_P1;HPM_P2
2024/01/17 00:00:06;;;;;;;0.10;0.10;;;-0.30;99.90;;;;;;5079061;28;20498;-74
2024/01/17 00:02:40;;;;;;;;;;;-0.40;99.90;;;;;;5068002;28;20548;-74
2024/01/17 00:05:11;;;;;;;0.10;0.10;;;-0.40;99.90;;;;;;5084622;28;19932;-74
2024/01/17 00:07:39;;;;;;;0.20;0.20;;;-0.40;99.90;;;;;;5086194;28;20053;-74
2024/01/17 00:10:07;;;;;;;0.10;0.10;;;-0.40;99.90;;;;;;5079160;28;20045;-74
2024/01/17 00:12:34;;;;;;;0.10;0.10;;;-0.40;99.90;;;;;;5070827;28;20063;-73
2024/01/17 00:15:02;;;;;;;0.10;0.10;;;-0.40;99.90;;;;;;5084000;28;20074;-73
2024/01/17 00:17:29;;;;;;;0.13;0.13;;;-0.40;99.90;;;;;;5085806;28;20049;-73
2024/01/17 00:19:57;;;;;;;0.17;0.17;;;-0.40;99.90;;;;;;5087610;28;20045;-73
2024/01/17 00:22:24;;;;;;;0.10;0.10;;;-0.40;99.90;;;;;;5086684;28;20587;-72
2024/01/17 00:24:51;;;;;;;0.10;0.10;;;-0.40;99.90;;;;;;5083919;28;20493;-72
2024/01/17 00:27:23;;;;;;;0.10;0.10;;;-0.40;99.90;;;;;;5068568;28;22122;-73
2024/01/17 00:29:56;;;;;;;0.10;0.10;;;-0.40;99.90;;;;;;5067221;28;20049;-72
2024/01/17 00:32:24;;;;;;;0.10;0.10;;;-0.40;99.90;;;;;;5085385;28;20055;-73
2024/01/17 00:34:52;;;;;;;0.10;0.10;;;-0.40;99.90;;;;;;5067281;28;21067;-73
2024/01/17 00:37:20;;;;;;;0.20;0.20;;;-0.40;99.90;;;;;;5083986;28;20467;-72
2024/01/17 00:39:47;;;;;;;0.10;0.10;;;-0.40;99.90;;;;;;5069726;28;20087;-73
2024/01/17 00:42:14;;;;;;;0.13;0.13;;;-0.40;99.90;;;;;;5088519;28;20122;-73
2024/01/17 00:44:42;;;;;;;0.10;0.10;;;-0.40;99.90;;;;;;5066333;28;20048;-73
2024/01/17 00:47:09;;;;;;;0.10;0.10;;;-0.50;99.90;;;;;;5093451;28;20048;-73
2024/01/17 00:49:39;;;;;;;0.10;0.10;;;-0.40;99.90;;;;;;5064982;28;20130;-73
2024/01/17 00:52:07;;;;;;;0.20;0.20;;;-0.40;99.90;;;;;;5075422;28;20052;-72
2024/01/17 00:54:34;;;;;;;0.20;0.20;;;-0.50;99.90;;;;;;5070002;28;20052;-72
2024/01/17 00:57:01;;;;;;;0.10;0.10;;;-0.40;99.90;;;;;;5070028;28;20059;-72
2024/01/17 00:59:28;;;;;;;0.10;0.10;;;-0.40;99.90;;;;;;5078982;28;20119;-72
2024/01/17 01:01:55;;;;;;;0.13;0.13;;;-0.40;99.90;;;;;;5061465;28;20056;-72
2024/01/17 01:04:22;;;;;;;0.10;0.10;;;-0.40;99.90;;;;;;5064282;28;20049;-72
2024/01/17 01:06:49;;;;;;;0.20;0.20;;;-0.40;99.90;;;;;;5097292;28;20044;-72
2024/01/17 01:09:16;;;;;;;0.25;0.25;;;-0.40;99.90;;;;;;5089203;28;20067;-72
2024/01/17 01:11:44;;;;;;;0.10;0.10;;;-0.40;99.90;;;;;;5067710;28;20053;-72
2024/01/17 01:14:11;;;;;;;0.20;0.20;;;-0.40;99.90;;;;;;5058149;28;20049;-73
2024/01/17 01:16:39;;;;;;;0.10;0.10;;;-0.40;99.90;;;;;;5078200;28;20049;-72
2024/01/17 01:19:06;;;;;;;0.13;0.13;;;-0.40;99.90;;;;;;5092130;28;20051;-72
2024/01/17 01:21:33;;;;;;;0.20;0.20;;;-0.40;99.90;;;;;;5069165;28;20044;-72
2024/01/17 01:24:00;;;;;;;0.20;0.20;;;-0.40;99.90;;;;;;5088513;28;20518;-72
2024/01/17 01:26:27;;;;;;;0.10;0.10;;;-0.40;99.90;;;;;;5056804;28;20885;-72
2024/01/17 01:28:56;;;;;;;0.20;0.20;;;-0.40;99.90;;;;;;5077164;28;20052;-72
2024/01/17 01:31:23;;;;;;;0.10;0.10;;;-0.40;99.90;;;;;;5088516;28;20037;-72
2024/01/17 01:33:51;;;;;;;0.17;0.17;;;-0.40;99.90;;;;;;5080496;28;20052;-72
2024/01/17 01:36:19;;;;;;;0.20;0.20;;;-0.40;99.90;;;;;;5083020;28;20060;-72
2024/01/17 01:38:46;;;;;;;0.10;0.10;;;-0.40;99.90;;;;;;5086373;28;20049;-72
2024/01/17 01:41:13;;;;;;;0.20;0.20;;;-0.40;99.90;;;;;;5052405;28;20055;-72
2024/01/17 01:43:40;;;;;;;0.10;0.10;;;-0.40;99.90;;;;;;5085051;28;20083;-72
2024/01/17 01:46:17;;;;;;;0.10;0.10;;;-0.40;99.90;;;;;;5087411;28;20048;-72
2024/01/17 01:48:45;;;;;;;0.20;0.20;;;-0.40;99.90;;;;;;5070546;28;20041;-71
2024/01/17 01:51:14;;;;;;;0.20;0.20;;;-0.40;99.90;;;;;;5066675;28;20052;-71
2024/01/17 01:53:49;;;;;;;0.20;0.20;;;-0.30;99.90;;;;;;5085495;28;20049;-71
2024/01/17 01:56:19;;;;;;;0.13;0.13;;;-0.30;99.90;;;;;;5075019;28;20049;-72
2024/01/17 01:58:48;;;;;;;0.20;0.20;;;-0.30;99.90;;;;;;5069582;28;20049;-71
2024/01/17 02:04:19;;;;;;;0.20;0.20;;;-0.30;99.90;;;;;;4826975;22;20659;-72
2024/01/17 02:06:48;;;;;;;0.10;0.10;;;-0.30;99.90;;;;;;5024344;28;20489;-73
2024/01/17 02:09:15;;;;;;;0.28;0.28;;;-0.30;99.90;;;;;;5017972;28;20109;-72
2024/01/17 02:11:42;;;;;;;0.17;0.17;;;-0.30;99.90;;;;;;5015928;28;20133;-73
2024/01/17 02:14:11;;;;;;;0.20;0.20;;;-0.40;99.90;;;;;;5000220;28;20046;-73
2024/01/17 02:16:38;;;;;;;0.10;0.10;;;-0.40;99.90;;;;;;5026397;28;20054;-73
2024/01/17 02:19:07;;;;;;;0.20;0.20;;;-0.40;99.90;;;;;;4999013;28;20509;-73
2024/01/17 02:21:34;;;;;;;0.10;0.10;;;-0.40;99.90;;;;;;5002763;28;20496;-73
2024/01/17 02:24:18;;;;;;;0.20;0.20;;;-0.40;99.90;;;;;;4994266;28;20061;-72
2024/01/17 02:26:45;;;;;;;0.10;0.10;;;-0.50;99.90;;;;;;5015962;28;20046;-73
2024/01/17 02:29:12;;;;;;;0.20;0.20;;;-0.50;99.90;;;;;;5036567;28;20050;-72
2024/01/17 02:31:40;;;;;;;0.20;0.20;;;-0.50;99.90;;;;;;4989443;28;20045;-73
2024/01/17 02:34:07;;;;;;;0.10;0.10;;;-0.50;99.90;;;;;;5007259;28;20066;-73
2024/01/17 02:36:34;;;;;;;0.10;0.10;;;-0.50;99.90;;;;;;5007389;28;20055;-73
2024/01/17 02:39:01;;;;;;;0.20;0.20;;;-0.50;99.90;;;;;;4997441;28;20104;-73
2024/01/17 02:41:28;;;;;;;0.10;0.10;;;-0.50;99.90;;;;;;5013547;28;20049;-73
2024/01/17 02:43:55;;;;;;;0.20;0.20;;;-0.50;99.90;;;;;;5024596;28;20469;-73
2024/01/17 02:46:27;;;;;;;0.20;0.20;;;-0.50;99.90;;;;;;5026953;28;20050;-73
2024/01/17 02:48:55;;;;;;;0.20;0.20;;;-0.50;99.90;;;;;;5024677;28;21040;-73
2024/01/17 02:51:22;;;;;;;0.10;0.10;;;-0.60;99.90;;;;;;5014342;28;20046;-73
2024/01/17 02:53:49;;;;;;;0.20;0.20;;;-0.60;99.90;;;;;;5026223;28;20049;-73
2024/01/17 02:56:16;;;;;;;0.10;0.10;;;-0.60;99.90;;;;;;5016805;28;20050;-73
2024/01/17 02:58:44;;;;;;;0.20;0.20;;;-0.60;99.90;;;;;;4996016;28;20101;-73
2024/01/17 03:01:13;;;;;;;0.20;0.20;;;-0.60;99.90;;;;;;5002606;28;20038;-73
2024/01/17 03:03:41;;;;;;;0.20;0.20;;;-0.60;99.90;;;;;;4997258;28;20081;-73
2024/01/17 03:06:08;;;;;;;0.10;0.10;;;-0.60;99.90;;;;;;5018219;28;20042;-73
2024/01/17 03:08:35;;;;;;;0.20;0.20;;;-0.60;99.90;;;;;;5016668;28;20045;-73
2024/01/17 03:11:02;;;;;;;0.10;0.10;;;-0.70;99.90;;;;;;5026429;28;20505;-73
2024/01/17 03:13:29;;;;;;;0.15;0.15;;;-0.70;99.90;;;;;;5017513;28;20054;-73
2024/01/17 03:15:56;;;;;;;0.10;0.10;;;-0.70;99.90;;;;;;5032776;28;20089;-73
2024/01/17 03:18:23;;;;;;;0.20;0.20;;;-0.70;99.90;;;;;;5016277;28;20498;-73
2024/01/17 03:20:51;;;;;;;0.20;0.20;;;-0.70;99.90;;;;;;5029669;28;20517;-73
2024/01/17 03:23:18;;;;;;;0.20;0.20;;;-0.70;99.90;;;;;;5034796;28;20053;-73
2024/01/17 03:25:45;;;;;;;0.10;0.10;;;-0.70;99.90;;;;;;4998392;28;20046;-73
2024/01/17 03:28:12;;;;;;;0.10;0.10;;;-0.70;99.90;;;;;;5041297;28;20053;-73
2024/01/17 03:30:40;;;;;;;0.20;0.20;;;-0.70;99.90;;;;;;5034770;28;20494;-73
2024/01/17 03:33:07;;;;;;;0.10;0.10;;;-0.70;99.90;;;;;;5018667;28;20050;-73
2024/01/17 03:35:34;;;;;;;0.10;0.10;;;-0.70;99.90;;;;;;5022083;28;20136;-73
2024/01/17 03:38:02;;;;;;;0.20;0.20;;;-0.70;99.90;;;;;;5006065;28;20069;-73
2024/01/17 03:40:28;;;;;;;0.10;0.10;;;-0.70;99.90;;;;;;5018956;28;20058;-72
2024/01/17 03:42:56;;;;;;;0.20;0.20;;;-0.70;99.90;;;;;;5034026;28;20054;-73
2024/01/17 03:45:23;;;;;;;0.10;0.10;;;-0.70;99.90;;;;;;5018681;28;20041;-72
2024/01/17 03:47:50;;;;;;;0.10;0.10;;;-0.70;99.90;;;;;;5038395;28;20046;-72
2024/01/17 03:50:17;;;;;;;0.13;0.13;;;-0.70;99.90;;;;;;5019119;28;20046;-72
2024/01/17 03:52:44;;;;;;;0.20;0.20;;;-0.70;99.90;;;;;;5009750;28;20490;-72
2024/01/17 03:55:11;;;;;;;0.20;0.20;;;-0.70;99.90;;;;;;5017717;28;20047;-71
2024/01/17 03:57:38;;;;;;;0.20;0.20;;;-0.70;99.90;;;;;;5030938;28;20061;-73
2024/01/17 04:00:06;;;;;;;0.20;0.20;;;-0.70;99.90;;;;;;5038533;28;20487;-72
2024/01/17 04:02:33;;;;;;;0.10;0.10;;;-0.70;99.90;;;;;;5022274;28;20500;-72
2024/01/17 04:05:00;;;;;;;0.10;0.10;;;-0.70;99.90;;;;;;5017561;28;20532;-72
2024/01/17 04:07:28;;;;;;;0.20;0.20;;;-0.70;99.90;;;;;;5000394;28;20040;-72
2024/01/17 04:09:55;;;;;;;0.20;0.20;;;-0.70;99.90;;;;;;5025809;28;20103;-72
2024/01/17 04:12:22;;;;;;;0.10;0.10;;;-0.70;99.90;;;;;;5028273;28;20100;-72
2024/01/17 04:14:49;;;;;;;0.20;0.20;;;-0.70;99.90;;;;;;5032394;28;20050;-72
2024/01/17 04:17:16;;;;;;;0.17;0.17;;;-0.70;99.90;;;;;;5030381;28;20052;-72
2024/01/17 04:19:43;;;;;;;0.20;0.20;;;-0.80;99.90;;;;;;5001792;28;20054;-72
2024/01/17 04:22:10;;;;;;;0.10;0.10;;;-0.80;99.90;;;;;;5015156;28;20047;-73
2024/01/17 04:24:37;;;;;;;0.10;0.10;;;-0.80;99.90;;;;;;5030987;28;20512;-72
2024/01/17 04:27:05;;;;;;;0.20;0.20;;;-0.80;99.90;;;;;;5014507;28;20607;-72
2024/01/17 04:29:34;;;;;;;0.10;0.10;;;-0.80;99.90;;;;;;4998991;28;20054;-72
2024/01/17 04:32:02;;;;;;;0.20;0.20;;;-0.80;99.90;;;;;;4996301;28;20505;-73
2024/01/17 04:34:29;;;;;;;0.10;0.10;;;-0.80;99.90;;;;;;5002043;28;20525;-72
2024/01/17 04:36:56;;;;;;;0.20;0.20;;;-0.80;99.90;;;;;;5011995;28;20046;-72
2024/01/17 04:39:23;;;;;;;0.20;0.20;;;-0.80;99.90;;;;;;4997150;28;20052;-72
2024/01/17 04:41:51;;;;;;;0.20;0.20;;;-0.80;99.90;;;;;;5004890;28;20073;-72
2024/01/17 04:44:18;;;;;;;0.20;0.20;;;-0.90;99.90;;;;;;5031199;28;20056;-72
2024/01/17 04:46:46;;;;;;;0.17;0.17;;;-0.90;99.90;;;;;;5015916;28;20509;-72
2024/01/17 04:49:13;;;;;;;0.10;0.10;;;-0.90;99.90;;;;;;5029143;28;20049;-72
2024/01/17 04:51:41;;;;;;;0.20;0.20;;;-0.90;99.90;;;;;;5010468;28;20469;-72
2024/01/17 04:54:09;;;;;;;0.10;0.10;;;-0.90;99.90;;;;;;5007815;28;20045;-72
2024/01/17 04:56:36;;;;;;;0.10;0.10;;;-0.90;99.90;;;;;;5031429;28;20429;-72
2024/01/17 04:59:03;;;;;;;0.13;0.13;;;-0.90;99.90;;;;;;5013886;28;20100;-72
2024/01/17 05:01:30;;;;;;;0.20;0.20;;;-0.90;99.90;;;;;;5014873;28;20042;-72
2024/01/17 05:03:57;;;;;;;0.10;0.10;;;-0.80;99.90;;;;;;4999889;28;20061;-72
2024/01/17 05:06:24;;;;;;;0.20;0.20;;;-0.80;99.90;;;;;;5014401;28;20053;-72
2024/01/17 05:08:52;;;;;;;0.10;0.10;;;-0.90;99.90;;;;;;5007010;28;20061;-72
2024/01/17 05:11:21;;;;;;;0.10;0.10;;;-0.80;99.90;;;;;;4995855;28;20060;-72
2024/01/17 05:13:49;;;;;;;0.10;0.10;;;-0.80;99.90;;;;;;5028231;28;20169;-72
2024/01/17 05:16:16;;;;;;;0.20;0.20;;;-0.80;99.90;;;;;;5016972;28;20490;-72
2024/01/17 05:18:43;;;;;;;0.17;0.17;;;-0.80;99.90;;;;;;5013749;28;20104;-72
2024/01/17 05:21:11;;;;;;;0.20;0.20;;;-0.80;99.90;;;;;;5009653;28;20086;-73
2024/01/17 05:23:38;;;;;;;0.15;0.15;;;-0.80;99.90;;;;;;5020053;28;20952;-72
2024/01/17 05:26:06;;;;;;;0.10;0.10;;;-0.80;99.90;;;;;;5010463;28;20104;-72
2024/01/17 05:28:33;;;;;;;0.10;0.10;;;-0.80;99.90;;;;;;5003002;28;20054;-72
2024/01/17 05:31:01;;;;;;;0.20;0.20;;;-0.80;99.90;;;;;;5015782;28;20042;-72
2024/01/17 05:33:28;;;;;;;0.17;0.17;;;-0.80;99.90;;;;;;4993561;28;20053;-72
2024/01/17 05:35:55;;;;;;;0.10;0.10;;;-0.70;99.90;;;;;;5004476;28;20096;-72
2024/01/17 05:38:22;;;;;;;0.17;0.17;;;-0.80;99.90;;;;;;5009032;28;20046;-72
2024/01/17 05:40:49;;;;;;;0.20;0.20;;;-0.80;99.90;;;;;;5001112;28;20054;-72
2024/01/17 05:43:16;;;;;;;0.20;0.20;;;-0.80;99.90;;;;;;5022251;28;20062;-72
2024/01/17 05:45:43;;;;;;;0.10;0.10;;;-0.80;99.90;;;;;;5011879;28;20046;-72
2024/01/17 05:48:10;;;;;;;0.10;0.10;;;-0.80;99.90;;;;;;4977801;28;20050;-72
2024/01/17 05:50:37;;;;;;;0.10;0.10;;;-0.70;99.90;;;;;;5033958;28;20050;-72
2024/01/17 05:53:05;;;;;;;0.10;0.10;;;-0.70;99.90;;;;;;5027188;28;20133;-72
2024/01/17 05:55:32;;;;;;;0.20;0.20;;;-0.70;99.90;;;;;;5016657;28;20047;-72
2024/01/17 05:57:59;;;;;;;0.20;0.20;;;-0.70;99.90;;;;;;5026939;28;20523;-71
2024/01/17 06:00:26;;;;;;;0.10;0.10;;;-0.80;99.90;;;;;;5004404;28;20057;-73
2024/01/17 06:02:53;;;;;;;0.15;0.15;;;-0.80;99.90;;;;;;5016256;28;20050;-72
2024/01/17 06:05:22;;;;;;;0.20;0.20;;;-0.80;99.90;;;;;;5012895;28;20076;-73
2024/01/17 06:07:49;;;;;;;0.20;0.20;;;-0.80;99.90;;;;;;4992758;28;20050;-72
2024/01/17 06:10:17;;;;;;;0.20;0.20;;;-0.80;99.90;;;;;;4997109;28;20129;-72
2024/01/17 06:12:44;;;;;;;0.13;0.13;;;-0.80;99.90;;;;;;5007203;28;20057;-73
2024/01/17 06:15:17;;;;;;;0.13;0.13;;;-0.80;99.90;;;;;;5003006;28;20061;-72
2024/01/17 06:17:45;;;;;;;0.10;0.10;;;-0.80;99.90;;;;;;5025077;28;20519;-72
2024/01/17 06:20:12;;;;;;;0.10;0.10;;;-0.90;99.90;;;;;;4968441;28;20058;-72
2024/01/17 06:22:40;;;;;;;0.10;0.10;;;-0.90;99.90;;;;;;5019381;28;20833;-72
2024/01/17 06:25:08;;;;;;;0.17;0.17;;;-0.80;99.90;;;;;;5009742;28;20129;-72
2024/01/17 06:27:35;;;;;;;0.10;0.10;;;-0.80;99.90;;;;;;4993458;28;20494;-73
2024/01/17 06:30:02;;;;;;;0.20;0.20;;;-0.90;99.90;;;;;;5009039;28;20049;-72
2024/01/17 06:32:30;;;;;;;0.10;0.10;;;-0.80;99.90;;;;;;4976587;28;20054;-72
2024/01/17 06:34:57;;;;;;;0.10;0.10;;;-0.90;99.90;;;;;;4992850;28;20152;-72
2024/01/17 06:37:24;;;;;;;0.20;0.20;;;-0.90;99.90;;;;;;5018975;28;20129;-73
2024/01/17 06:39:52;;;;;;;0.10;0.10;;;-0.90;99.90;;;;;;5020789;28;20052;-73
2024/01/17 06:42:19;;;;;;;0.10;0.10;;;-1.00;99.90;;;;;;5018554;28;20057;-73
2024/01/17 06:44:46;;;;;;;0.20;0.20;;;-1.00;99.90;;;;;;5025189;28;20045;-73
2024/01/17 06:47:13;;;;;;;0.20;0.20;;;-1.00;99.90;;;;;;5026668;28;20050;-73
2024/01/17 06:49:41;;;;;;;0.10;0.10;;;-1.00;99.90;;;;;;4996854;28;20061;-72
2024/01/17 06:52:09;;;;;;;0.10;0.10;;;-1.10;99.90;;;;;;5012533;28;20042;-72
2024/01/17 06:54:36;;;;;;;0.10;0.10;;;-1.20;99.90;;;;;;5010584;28;20050;-73
2024/01/17 06:57:07;;;;;;;0.20;0.20;;;-1.20;99.90;;;;;;4995791;28;20038;-72
2024/01/17 06:59:34;;;;;;;0.10;0.10;;;-1.20;99.90;;;;;;5013634;28;20050;-73
2024/01/17 07:02:01;;;;;;;0.10;0.10;;;-1.20;99.90;;;;;;5030645;28;20046;-73
2024/01/17 07:04:28;;;;;;;0.10;0.10;;;-1.30;99.90;;;;;;5016371;28;20057;-73
2024/01/17 07:06:55;;;;;;;0.20;0.20;;;-1.30;99.90;;;;;;5010773;28;20069;-73
2024/01/17 07:09:22;;;;;;;0.10;0.10;;;-1.40;99.90;;;;;;5010782;28;20512;-72
2024/01/17 07:11:50;;;;;;;0.10;0.10;;;-1.40;99.90;;;;;;5000684;28;20505;-72
2024/01/17 07:14:17;;;;;;;0.10;0.10;;;-1.40;99.90;;;;;;4977966;28;20104;-72
2024/01/17 07:16:44;;;;;;;0.20;0.20;;;-1.40;99.90;;;;;;5010777;28;20053;-72
2024/01/17 07:19:11;;;;;;;0.20;0.20;;;-1.50;99.90;;;;;;5001160;28;20097;-72
2024/01/17 07:21:41;;;;;;;0.10;0.10;;;-1.50;99.90;;;;;;5035272;28;20056;-72
2024/01/17 07:24:10;;;;;;;0.20;0.20;;;-1.50;99.90;;;;;;5032380;28;20056;-72
2024/01/17 07:26:37;;;;;;;0.20;0.20;;;-1.50;99.90;;;;;;5025453;28;20061;-73
2024/01/17 07:29:05;;;;;;;0.20;0.20;;;-1.50;99.90;;;;;;5013647;28;20140;-72
2024/01/17 07:31:32;;;;;;;0.10;0.10;;;-1.60;99.90;;;;;;5034774;28;20092;-72
2024/01/17 07:33:59;;;;;;;0.10;0.10;;;-1.60;99.90;;;;;;5012930;28;20058;-73
2024/01/17 07:36:26;;;;;;;0.10;0.10;;;-1.70;99.90;;;;;;4979731;28;20532;-72
2024/01/17 07:38:53;;;;;;;0.20;0.20;;;-1.80;99.90;;;;;;5015552;28;20097;-73
2024/01/17 07:41:20;;;;;;;0.20;0.20;;;-1.90;99.90;;;;;;4999162;28;20057;-73
2024/01/17 07:43:48;;;;;;;0.20;0.20;;;-1.90;99.90;;;;;;5026562;28;20049;-72
2024/01/17 07:46:16;;;;;;;0.20;0.20;;;-1.90;99.90;;;;;;5026067;28;20410;-73
2024/01/17 07:48:43;;;;;;;0.17;0.17;;;-1.90;99.90;;;;;;5007134;28;20046;-74
2024/01/17 07:51:11;;;;;;;0.20;0.20;;;-1.90;99.90;;;;;;5008091;28;20525;-74
2024/01/17 07:53:39;;;;;;;0.10;0.10;;;-2.00;99.90;;;;;;5000609;28;20601;-74
2024/01/17 07:56:06;;;;;;;0.20;0.20;;;-1.90;99.90;;;;;;5023880;28;20046;-74
2024/01/17 07:58:33;;;;;;;0.10;0.10;;;-2.00;99.90;;;;;;4988041;28;20053;-74
2024/01/17 08:01:01;;;;;;;0.20;0.20;;;-2.00;99.90;;;;;;5009113;28;20058;-74
2024/01/17 08:03:28;;;;;;;0.20;0.20;;;-1.90;99.90;;;;;;5013575;28;20049;-73
2024/01/17 08:05:57;;;;;;;0.10;0.10;;;-1.90;99.90;;;;;;4992117;28;20417;-72
2024/01/17 08:08:24;;;;;;;0.10;0.10;;;-1.90;99.90;;;;;;5011868;28;20053;-73
2024/01/17 08:10:51;;;;;;;0.20;0.20;;;-1.90;99.90;;;;;;5010339;28;20046;-72
2024/01/17 08:13:18;;;;;;;0.10;0.10;;;-1.90;99.90;;;;;;5025991;28;20049;-71
2024/01/17 08:15:45;;;;;;;0.10;0.10;;;-1.90;99.90;;;;;;4994373;28;20145;-73
2024/01/17 08:18:13;;;;;;;0.20;0.20;;;-1.90;99.90;;;;;;5020464;28;20592;-73
2024/01/17 08:20:41;;;;;;;0.20;0.20;;;-1.90;99.90;;;;;;4992177;28;20465;-73
2024/01/17 08:23:09;;;;;;;0.17;0.17;;;-1.90;99.90;;;;;;5033086;28;20056;-73
2024/01/17 08:25:36;;;;;;;0.20;0.20;;;-1.90;99.90;;;;;;5026936;28;20536;-73
2024/01/17 08:28:03;;;;;;;0.17;0.17;;;-1.90;99.90;;;;;;5012521;28;20061;-74
2024/01/17 08:30:30;;;;;;;0.10;0.10;;;-1.90;99.90;;;;;;4992062;28;20082;-73
2024/01/17 08:32:58;;;;;;;0.20;0.20;;;-1.80;99.90;;;;;;5026493;28;20609;-73
2024/01/17 08:35:26;;;;;;;0.20;0.20;;;-1.80;99.90;;;;;;4990219;28;20444;-73
2024/01/17 08:37:53;;;;;;;0.20;0.20;;;-1.80;99.90;;;;;;5019715;28;20043;-73
2024/01/17 08:40:20;;;;;;;0.20;0.20;;;-1.80;99.90;;;;;;5007737;28;20050;-73
2024/01/17 08:42:48;;;;;;;0.20;0.20;;;-1.70;99.90;;;;;;5021255;28;20520;-73
2024/01/17 08:45:17;;;;;;;0.10;0.10;;;-1.70;99.90;;;;;;5030468;28;20045;-73
2024/01/17 08:47:45;;;;;;;0.20;0.20;;;-1.70;99.90;;;;;;5011265;28;20042;-73
2024/01/17 08:50:13;;;;;;;0.25;0.25;;;-1.70;99.90;;;;;;5021445;28;20050;-73
2024/01/17 08:52:41;;;;;;;0.30;0.30;;;-1.70;99.90;;;;;;5010954;28;20136;-73
2024/01/17 08:55:09;;;;;;;0.17;0.17;;;-1.60;99.90;;;;;;5009818;28;20072;-73
2024/01/17 08:57:37;;;;;;;0.20;0.20;;;-1.60;99.90;;;;;;5026881;28;20545;-73
2024/01/17 09:00:06;;;;;;;0.13;0.13;;;-1.50;99.90;;;;;;5020080;28;20056;-73
2024/01/17 09:02:33;;;;;;;0.10;0.10;;;-1.40;99.90;;;;;;4993816;28;20050;-73
2024/01/17 09:05:01;;;;;;;0.20;0.20;;;-1.50;99.90;;;;;;4995527;28;20050;-73
2024/01/17 09:07:29;;;;;;;0.20;0.20;;;-1.50;99.90;;;;;;5008360;28;20049;-73
2024/01/17 09:09:58;;;;;;;0.10;0.10;;;-1.50;99.90;;;;;;4989905;28;20145;-73
2024/01/17 09:12:26;;;;;;;0.20;0.20;;;-1.50;99.90;;;;;;5015730;28;20101;-73
2024/01/17 09:14:54;;;;;;;0.20;0.20;;;-1.40;99.90;;;;;;5003578;28;20057;-73
2024/01/17 09:17:22;;;;;;;0.20;0.20;;;-1.40;99.90;;;;;;5026493;28;20136;-73
2024/01/17 09:19:49;;;;;;;0.10;0.10;;;-1.40;99.90;;;;;;5008651;28;20065;-73
2024/01/17 09:22:16;;;;;;;0.20;0.20;;;-1.50;99.90;;;;;;5026302;28;20526;-73
2024/01/17 09:24:44;;;;;;;0.10;0.10;;;-1.40;99.90;;;;;;5018353;28;20050;-73
2024/01/17 09:27:11;;;;;;;0.20;0.20;;;-1.40;99.90;;;;;;5026509;28;20451;-73
2024/01/17 09:29:38;;;;;;;0.20;0.20;;;-1.30;99.90;;;;;;5009621;28;20057;-73
2024/01/17 09:32:06;;;;;;;0.10;0.10;;;-1.30;99.90;;;;;;4989062;28;20054;-73
2024/01/17 09:34:33;;;;;;;0.20;0.20;;;-1.20;99.90;;;;;;5008058;28;20046;-73
2024/01/17 09:37:02;;;;;;;0.20;0.20;;;-1.10;99.90;;;;;;4993796;28;20080;-72
2024/01/17 09:39:30;;;;;;;0.20;0.20;;;-1.00;99.90;;;;;;5003384;28;20639;-73
2024/01/17 09:42:05;;;;;;;0.20;0.20;;;-1.00;99.90;;;;;;5006691;28;20038;-72
2024/01/17 09:44:34;;;;;;;0.15;0.15;;;-1.00;99.90;;;;;;5022606;28;20050;-73
2024/01/17 09:47:03;;;;;;;0.20;0.20;;;-0.90;99.90;;;;;;5013446;28;20038;-73
2024/01/17 09:49:32;;;;;;;0.10;0.10;;;-0.60;99.90;;;;;;5009120;28;20105;-72
2024/01/17 09:52:04;;;;;;;0.20;0.20;;;-0.70;99.90;;;;;;4991368;28;27329;-72
2024/01/17 09:54:42;;;;;;;0.20;0.20;;;-0.60;99.90;;;;;;5006530;28;20054;-72
2024/01/17 09:57:18;;;;;;;0.30;0.30;;;-0.60;99.90;;;;;;5027753;28;20046;-72
2024/01/17 09:59:57;;;;;;;0.20;0.20;;;-0.60;99.90;;;;;;5025194;28;20060;-72
2024/01/17 10:02:25;;;;;;;0.20;0.20;;;-0.50;99.90;;;;;;5005892;28;20048;-72
2024/01/17 10:04:53;;;;;;;0.10;0.10;;;-0.50;99.90;;;;;;5024241;28;20042;-71
2024/01/17 10:07:21;;;;;;;0.20;0.20;;;-0.50;99.90;;;;;;5013109;28;20068;-71
2024/01/17 10:09:48;;;;;;;0.20;0.20;;;-0.40;99.90;;;;;;5015423;28;20124;-71
2024/01/17 10:12:18;;;;;;;0.20;0.20;;;-0.40;99.90;;;;;;5005400;28;20045;-72
2024/01/17 10:14:46;;;;;;;0.20;0.20;;;-0.40;99.90;;;;;;4978117;28;20184;-71
2024/01/17 10:17:13;;;;;;;0.20;0.20;;;-0.40;99.90;;;;;;5024426;28;20130;-72
2024/01/17 10:19:40;;;;;;;0.20;0.20;;;-0.30;99.90;;;;;;5022298;28;20573;-72
2024/01/17 10:22:11;;;;;;;0.15;0.15;;;-0.20;99.90;;;;;;5029628;28;20489;-72
2024/01/17 10:24:41;;;;;;;0.20;0.20;;;-0.30;99.90;;;;;;4997012;28;20064;-72
2024/01/17 10:27:08;;;;;;;0.20;0.20;;;-0.30;99.90;;;;;;5011321;28;20064;-72
2024/01/17 10:29:40;;;;;;;0.13;0.13;;;-0.30;99.90;;;;;;5014718;28;20053;-71
2024/01/17 10:32:08;;;;;;;0.10;0.10;;;-0.20;99.90;;;;;;5010960;28;20917;-72
2024/01/17 10:34:38;;;;;;;0.15;0.15;;;-0.20;99.90;;;;;;5033987;28;20046;-71
2024/01/17 10:37:07;;;;;;;0.20;0.20;;;-0.20;99.90;;;;;;5023132;28;20474;-71
2024/01/17 10:39:34;;;;;;;0.20;0.20;;;-0.30;99.90;;;;;;5022560;28;20076;-72
2024/01/17 10:42:04;;;;;;;0.10;0.10;;;-0.20;99.90;;;;;;5012309;28;20100;-71
2024/01/17 10:44:32;;;;;;;0.20;0.20;;;-0.30;99.90;;;;;;5007298;28;20073;-72
2024/01/17 10:46:59;;;;;;;0.20;0.20;;;-0.30;99.90;;;;;;5015450;28;20046;-72
2024/01/17 10:49:26;;;;;;;0.20;0.20;;;-0.40;99.90;;;;;;5001276;28;20049;-71
2024/01/17 10:52:02;;;;;;;0.10;0.10;;;-0.40;99.90;;;;;;4995456;28;20110;-71
2024/01/17 10:54:48;;;;;;;0.20;0.20;;;-0.30;99.90;;;;;;5018983;28;20425;-71
2024/01/17 10:57:17;;;;;;;0.20;0.20;;;-0.30;99.90;;;;;;5005024;28;20133;-72
2024/01/17 10:59:49;;;;;;;0.20;0.20;;;-0.20;99.90;;;;;;5008149;28;20059;-72
2024/01/17 11:02:21;;;;;;;0.20;0.20;;;-0.20;99.90;;;;;;5023618;28;20045;-71
2024/01/17 11:05:00;;;;;;;0.20;0.20;;;-0.20;99.90;;;;;;5007921;28;20054;-72
2024/01/17 11:07:28;;;;;;;0.10;0.10;;;-0.20;99.90;;;;;;5011069;28;20049;-72
2024/01/17 11:09:58;;;;;;;0.20;0.20;;;-0.30;99.90;;;;;;5020466;28;20053;-72
2024/01/17 11:12:26;;;;;;;0.20;0.20;;;-0.30;99.90;;;;;;4984343;28;20038;-71
2024/01/17 11:14:55;;;;;;;0.20;0.20;;;-0.20;99.90;;;;;;5001408;28;20540;-71
2024/01/17 11:17:24;;;;;;;0.20;0.20;;;-0.20;99.90;;;;;;5002404;28;20046;-72
2024/01/17 11:19:57;;;;;;;0.20;0.20;;;-0.10;99.90;;;;;;5019895;28;20552;-72
2024/01/17 11:22:24;;;;;;;0.10;0.10;;;-0.10;99.90;;;;;;5003864;28;20073;-72
2024/01/17 11:25:11;;;;;;;0.20;0.20;;;-0.20;99.90;;;;;;5007852;28;20105;-72
2024/01/17 11:27:59;;;;;;;0.20;0.20;;;-0.10;99.90;;;;;;5012704;28;20438;-72
2024/01/17 11:30:26;;;;;;;0.10;0.10;;;-0.20;99.90;;;;;;5013221;28;20445;-72
2024/01/17 11:33:20;;;;;;;0.13;0.13;;;-0.20;99.90;;;;;;5011760;28;21021;-71
2024/01/17 11:35:49;;;;;;;0.10;0.10;;;-0.20;99.90;;;;;;5010181;28;20062;-72
2024/01/17 11:38:22;;;;;;;0.10;0.10;;;-0.20;99.90;;;;;;5000012;28;20113;-72
2024/01/17 11:40:53;;;;;;;0.20;0.20;;;-0.20;99.90;;;;;;5026033;28;20623;-72
2024/01/17 11:43:20;;;;;;;0.20;0.20;;;-0.20;99.90;;;;;;4999114;28;20046;-72
2024/01/17 11:45:50;;;;;;;0.13;0.13;;;-0.10;99.90;;;;;;5009626;28;20072;-72
2024/01/17 11:48:25;;;;;;;0.20;0.20;;;-0.10;99.90;;;;;;5006542;28;20069;-72
2024/01/17 11:51:01;;;;;;;0.10;0.10;;;-0.10;99.90;;;;;;5031962;28;20050;-72
2024/01/17 11:53:30;;;;;;;0.13;0.13;;;-0.20;99.90;;;;;;5023556;28;20046;-72
2024/01/17 11:55:59;;;;;;;0.20;0.20;;;-0.10;99.90;;;;;;5010824;28;20050;-71
2024/01/17 11:58:49;;;;;;;0.10;0.10;;;-0.10;99.90;;;;;;5021347;28;20522;-72
2024/01/17 12:01:24;;;;;;;0.13;0.13;;;-0.10;99.90;;;;;;5026105;28;20062;-72
2024/01/17 12:03:51;;;;;;;0.10;0.10;;;0.00;99.90;;;;;;5024432;28;20041;-72
2024/01/17 12:06:22;;;;;;;0.20;0.20;;;0.10;99.90;;;;;;5010460;28;20053;-72
2024/01/17 12:08:55;;;;;;;0.10;0.10;;;0.10;99.90;;;;;;5024215;28;20478;-72
2024/01/17 12:11:23;;;;;;;0.10;0.10;;;0.10;99.90;;;;;;5009418;28;20146;-72
2024/01/17 12:13:52;;;;;;;0.20;0.20;;;0.10;99.90;;;;;;4983581;28;20120;-72
2024/01/17 12:16:21;;;;;;;0.10;0.10;;;0.20;99.90;;;;;;5023758;28;20070;-72
2024/01/17 12:18:59;;;;;;;0.10;0.10;;;0.30;99.90;;;;;;5019478;28;20044;-72
2024/01/17 12:21:27;;;;;;;0.20;0.20;;;0.30;99.90;;;;;;5018258;28;20433;-72
2024/01/17 12:23:56;;;;;;;0.20;0.20;;;0.30;99.90;;;;;;5010136;28;20045;-72
2024/01/17 12:26:23;;;;;;;0.17;0.17;;;0.40;99.90;;;;;;5011938;28;20057;-72
2024/01/17 12:29:08;;;;;;;0.20;0.20;;;0.30;99.90;;;;;;5010329;28;20041;-72
2024/01/17 12:31:35;;;;;;;;;;;0.30;99.90;;;;;;5011771;28;20094;-72
2024/01/17 12:34:05;;;;;;;0.20;0.20;;;0.30;99.90;;;;;;5028292;28;19932;-71
2024/01/17 12:36:35;;;;;;;0.20;0.20;;;0.30;99.90;;;;;;4991702;28;20054;-71
2024/01/17 12:39:04;;;;;;;0.20;0.20;;;0.40;99.90;;;;;;5027537;28;20140;-72
2024/01/17 12:41:33;;;;;;;0.20;0.20;;;0.40;99.90;;;;;;5022403;28;20050;-72
2024/01/17 12:44:01;;;;;;;0.20;0.20;;;0.50;99.90;;;;;;5009206;28;20049;-72
2024/01/17 12:46:28;;;;;;;0.10;0.10;;;0.50;99.90;;;;;;4995722;28;20568;-72
2024/01/17 12:48:58;;;;;;;0.10;0.10;;;0.50;99.90;;;;;;5004774;28;20077;-71
2024/01/17 12:51:26;;;;;;;0.20;0.20;;;0.60;99.90;;;;;;5007062;28;20056;-72
2024/01/17 12:53:54;;;;;;;0.20;0.20;;;0.50;99.90;;;;;;5026812;28;20046;-72
2024/01/17 12:56:22;;;;;;;0.15;0.15;;;0.60;99.90;;;;;;5028805;28;20425;-72